Time;durP1;ratioP1;P1;durP2;ratioP2;P2;SDS_P1;SDS_P2;PMS_P1;PMS_P2;Temp;Humidity;BMP_temperature;BMP_pressure;BME280_temperature;BME280_humidity;BME280_pressure;Samples;Min_cycle;Max_cycle;Signal;HPM_P1;HPM_P2
2022/04/02 00:02:21;;;;;;;0.40;0.40;;;;;;;1.95;100.00;99483.88;5052635;28;20454;-52
2022/04/02 00:04:47;;;;;;;0.20;0.10;;;;;;;1.97;100.00;99478.59;5048365;28;20452;-53
2022/04/02 00:07:15;;;;;;;0.20;0.10;;;;;;;2.04;100.00;99478.53;5052567;28;20548;-52
2022/04/02 00:09:42;;;;;;;0.40;0.40;;;;;;;2.01;100.00;99478.56;5052108;28;20474;-52
2022/04/02 00:12:09;;;;;;;0.20;0.10;;;;;;;2.14;100.00;99473.22;5052353;28;20450;-52
2022/04/02 00:14:35;;;;;;;0.20;0.10;;;;;;;2.30;100.00;99470.47;5039661;28;20447;-51
2022/04/02 00:17:03;;;;;;;0.20;0.10;;;;;;;2.30;100.00;99478.34;5049441;28;20504;-52
2022/04/02 00:19:30;;;;;;;0.20;0.10;;;;;;;2.29;100.00;99473.09;5052403;28;20843;-52
2022/04/02 00:21:57;;;;;;;0.20;0.10;;;;;;;2.37;100.00;99472.16;5047103;28;20451;-53
2022/04/02 00:24:24;;;;;;;0.20;0.10;;;;;;;2.65;100.00;99478.03;5052230;28;20462;-52
2022/04/02 00:26:51;;;;;;;0.20;0.10;;;;;;;2.78;100.00;99478.78;5053723;28;20510;-52
2022/04/02 00:29:18;;;;;;;0.20;0.10;;;;;;;2.62;100.00;99475.44;5055874;28;21029;-53
2022/04/02 00:31:44;;;;;;;0.20;0.10;;;;;;;2.76;100.00;99470.06;5055983;28;20451;-52
2022/04/02 00:34:11;;;;;;;0.20;0.10;;;;;;;2.63;100.00;99473.69;5056308;28;20504;-53
2022/04/02 00:36:38;;;;;;;0.20;0.10;;;;;;;2.60;100.00;99471.06;5053542;28;20504;-52
2022/04/02 00:39:06;;;;;;;0.20;0.10;;;;;;;2.42;100.00;99468.63;5055851;28;20838;-52
2022/04/02 00:41:34;;;;;;;0.20;0.10;;;;;;;2.31;100.00;99474.81;5055512;28;20485;-52
2022/04/02 00:44:10;;;;;;;0.20;0.10;;;;;;;2.31;100.00;99476.56;5055791;28;20473;-53
2022/04/02 00:46:39;;;;;;;0.20;0.10;;;;;;;2.17;100.00;99475.81;5055740;28;20544;-51
2022/04/02 00:49:07;;;;;;;0.20;0.10;;;;;;;2.28;100.00;99476.59;5055579;28;20557;-51
2022/04/02 00:51:41;;;;;;;0.20;0.10;;;;;;;2.06;100.00;99479.41;5055743;28;20974;-52
2022/04/02 00:54:19;;;;;;;0.20;0.10;;;;;;;2.01;100.00;99480.31;5055395;28;20492;-51
2022/04/02 00:56:46;;;;;;;0.20;0.10;;;;;;;2.11;100.00;99465.41;5055485;28;20489;-51
2022/04/02 00:59:13;;;;;;;0.20;0.10;;;;;;;2.17;100.00;99476.69;5051927;28;20470;-52
2022/04/02 01:01:40;;;;;;;0.20;0.10;;;;;;;1.99;100.00;99475.09;5036978;28;20452;-52
2022/04/02 01:04:08;;;;;;;0.20;0.10;;;;;;;2.01;100.00;99469.84;5052534;28;20475;-52
2022/04/02 01:06:35;;;;;;;0.20;0.10;;;;;;;2.00;100.00;99474.22;5046443;28;20482;-51
2022/04/02 01:09:02;;;;;;;0.20;0.10;;;;;;;2.09;100.00;99473.28;5055155;28;20866;-52
2022/04/02 01:11:56;;;;;;;0.20;0.10;;;;;;;2.23;100.00;99467.94;5056778;28;20447;-51
2022/04/02 01:14:23;;;;;;;0.20;0.10;;;;;;;2.10;100.00;99475.03;5025849;28;20460;-52
2022/04/02 01:16:50;;;;;;;0.20;0.10;;;;;;;2.11;100.00;99481.13;5050601;28;20443;-52
2022/04/02 01:19:17;;;;;;;0.20;0.10;;;;;;;2.12;100.00;99488.09;5054940;28;20554;-53
2022/04/02 01:21:48;;;;;;;0.20;0.10;;;;;;;2.23;100.00;99486.28;5047739;28;20860;-51
2022/04/02 01:24:15;;;;;;;0.20;0.10;;;;;;;2.12;100.00;99483.72;5045164;28;20500;-52
2022/04/02 01:26:42;;;;;;;0.20;0.10;;;;;;;2.04;100.00;99489.03;5055020;28;20486;-51
2022/04/02 01:29:09;;;;;;;0.20;0.20;;;;;;;2.11;100.00;99494.22;5054783;28;20470;-52
2022/04/02 01:31:36;;;;;;;0.20;0.10;;;;;;;2.10;100.00;99492.50;5037222;28;20447;-52
2022/04/02 01:34:03;;;;;;;0.20;0.10;;;;;;;2.15;100.00;99496.81;5055106;28;20516;-52
2022/04/02 01:36:29;;;;;;;0.20;0.10;;;;;;;2.12;100.00;99494.22;5053119;28;20994;-52
2022/04/02 01:38:56;;;;;;;0.20;0.10;;;;;;;2.13;100.00;99500.31;5053819;28;20466;-52
2022/04/02 01:41:22;;;;;;;0.20;0.10;;;;;;;1.98;100.00;99503.94;5054669;28;20534;-52
2022/04/02 01:43:49;;;;;;;0.20;0.10;;;;;;;2.01;100.00;99502.16;5054887;28;20572;-52
2022/04/02 01:46:16;;;;;;;0.20;0.10;;;;;;;2.11;100.00;99499.47;5036387;28;20490;-52
2022/04/02 01:48:45;;;;;;;0.20;0.20;;;;;;;1.96;100.00;99505.69;5054838;28;20466;-52
2022/04/02 01:51:12;;;;;;;0.20;0.10;;;;;;;1.92;100.00;99504.84;5054629;28;20447;-52
2022/04/02 01:53:39;;;;;;;0.30;0.20;;;;;;;2.00;100.00;99505.66;5054753;28;20446;-52
2022/04/02 01:56:09;;;;;;;0.20;0.10;;;;;;;1.91;100.00;99507.47;5054266;28;20496;-52
2022/04/02 01:58:36;;;;;;;0.20;0.10;;;;;;;1.77;100.00;99507.53;5054734;28;20861;-51
2022/04/02 02:01:05;;;;;;;0.20;0.10;;;;;;;1.89;100.00;99506.59;5054449;28;20478;-51
2022/04/02 02:03:32;;;;;;;0.20;0.10;;;;;;;1.81;100.00;99514.53;5054509;28;20482;-52
2022/04/02 02:05:58;;;;;;;0.20;0.10;;;;;;;1.79;100.00;99508.44;5045674;28;20459;-51
2022/04/02 02:08:25;;;;;;;0.20;0.10;;;;;;;1.91;100.00;99504.84;5054270;28;21038;-52
2022/04/02 02:10:52;;;;;;;0.20;0.10;;;;;;;1.94;100.00;99505.72;5053921;28;20451;-52
2022/04/02 02:13:20;;;;;;;0.20;0.10;;;;;;;1.89;100.00;99502.22;5051690;28;20481;-51
2022/04/02 02:15:47;;;;;;;0.20;0.20;;;;;;;2.00;100.00;99508.28;5040620;28;20447;-53
2022/04/02 02:18:13;;;;;;;0.20;0.10;;;;;;;1.93;100.00;99509.22;5053930;28;20466;-52
2022/04/02 02:20:40;;;;;;;0.20;0.10;;;;;;;1.85;100.00;99511.00;5027879;28;20493;-52
2022/04/02 02:23:07;;;;;;;0.20;0.10;;;;;;;1.93;100.00;99508.34;5049178;28;20609;-51
2022/04/02 02:25:34;;;;;;;0.20;0.10;;;;;;;1.93;100.00;99509.22;5053683;28;20505;-51
2022/04/02 02:28:01;;;;;;;0.20;0.10;;;;;;;1.92;100.00;99514.44;5053522;28;20552;-52
2022/04/02 02:30:28;;;;;;;0.20;0.10;;;;;;;1.87;100.00;99501.38;5053976;28;20500;-51
2022/04/02 02:35:49;;;;;;;0.20;0.10;;;;;;;2.05;100.00;99522.19;5053615;28;20461;-51
2022/04/02 02:35:51;;;;;;;0.20;0.10;;;;;;;1.84;100.00;99519.75;5052293;28;20446;-52
2022/04/02 02:38:20;;;;;;;0.20;0.10;;;;;;;1.88;100.00;99513.59;5053544;28;20897;-51
2022/04/02 02:40:49;;;;;;;0.20;0.10;;;;;;;1.87;100.00;99519.72;5053694;28;20459;-51
2022/04/02 02:43:16;;;;;;;0.20;0.10;;;;;;;1.92;100.00;99520.56;5053561;28;20451;-52
2022/04/02 02:45:43;;;;;;;0.20;0.10;;;;;;;1.84;100.00;99522.34;5053546;28;20673;-52
2022/04/02 02:48:10;;;;;;;0.20;0.10;;;;;;;1.93;100.00;99527.56;5053106;28;20490;-51
2022/04/02 02:50:37;;;;;;;0.20;0.10;;;;;;;1.89;100.00;99522.31;5035381;28;20450;-52
2022/04/02 02:53:04;;;;;;;0.20;0.10;;;;;;;1.88;100.00;99529.31;5009470;28;20516;-52
2022/04/02 02:55:30;;;;;;;0.20;0.10;;;;;;;1.78;100.00;99531.13;5053609;28;20482;-51
2022/04/02 02:57:57;;;;;;;0.20;0.10;;;;;;;1.91;100.00;99531.03;5052796;28;20494;-52
2022/04/02 03:00:23;;;;;;;0.20;0.10;;;;;;;1.82;100.00;99531.97;5052951;28;20504;-51
2022/04/02 03:02:50;;;;;;;0.73;0.73;;;;;;;1.89;100.00;99533.66;5053114;28;20948;-52
2022/04/02 03:05:17;;;;;;;0.20;0.10;;;;;;;1.91;100.00;99536.28;5045610;28;20502;-52
2022/04/02 03:07:48;;;;;;;0.20;0.10;;;;;;;1.79;100.00;99534.63;5035158;28;20517;-53
2022/04/02 03:10:20;;;;;;;0.20;0.10;;;;;;;2.00;100.00;99537.09;5053395;28;20462;-52
2022/04/02 03:12:48;;;;;;;0.20;0.10;;;;;;;1.93;100.00;99543.28;5053182;28;20443;-53
2022/04/02 03:15:15;;;;;;;0.20;0.10;;;;;;;1.96;100.00;99543.25;5037287;28;20447;-53
2022/04/02 03:17:43;;;;;;;0.20;0.10;;;;;;;1.70;100.00;99539.91;5052923;28;20447;-52
2022/04/02 03:20:12;;;;;;;0.20;0.10;;;;;;;1.92;100.00;99540.63;5052762;28;20943;-52
2022/04/02 03:22:40;;;;;;;0.20;0.10;;;;;;;1.85;100.00;99545.06;5048115;28;20800;-52
2022/04/02 03:25:11;;;;;;;0.20;0.10;;;;;;;1.96;100.00;99551.13;5052938;28;20455;-52
2022/04/02 03:27:40;;;;;;;0.20;0.10;;;;;;;1.82;100.00;99557.31;5052372;28;20529;-52
2022/04/02 03:30:11;;;;;;;0.20;0.10;;;;;;;1.89;100.00;99553.75;5052452;28;20876;-52
2022/04/02 03:32:38;;;;;;;0.20;0.10;;;;;;;1.91;100.00;99555.50;5052514;28;20439;-52
2022/04/02 03:35:06;;;;;;;0.20;0.10;;;;;;;1.92;100.00;99558.97;5050749;28;20505;-51
2022/04/02 03:37:37;;;;;;;0.20;0.10;;;;;;;1.86;100.00;99554.66;5034836;28;20447;-52
2022/04/02 03:40:07;;;;;;;0.20;0.10;;;;;;;1.85;100.00;99552.03;5052506;28;20500;-52
2022/04/02 03:42:35;;;;;;;0.20;0.10;;;;;;;1.81;100.00;99558.19;5052264;28;20435;-52
2022/04/02 03:45:06;;;;;;;0.20;0.20;;;;;;;1.87;100.00;99566.00;5052336;28;20447;-52
2022/04/02 03:47:33;;;;;;;0.30;0.30;;;;;;;1.96;100.00;99563.34;5052364;28;20524;-52
2022/04/02 03:50:00;;;;;;;0.20;0.10;;;;;;;1.91;100.00;99570.34;5052692;28;20466;-52
2022/04/02 03:52:27;;;;;;;0.20;0.10;;;;;;;1.77;100.00;99567.78;5052362;28;20450;-52
2022/04/02 03:54:54;;;;;;;0.20;0.10;;;;;;;1.88;100.00;99571.22;5052147;28;20459;-51
2022/04/02 03:57:21;;;;;;;0.20;0.10;;;;;;;1.77;100.00;99575.66;5052110;28;20831;-52
2022/04/02 03:59:48;;;;;;;0.20;0.10;;;;;;;1.80;100.00;99567.81;5051972;28;20470;-53
2022/04/02 04:02:15;;;;;;;0.20;0.10;;;;;;;1.76;100.00;99571.28;5055282;28;20461;-53
2022/04/02 04:04:42;;;;;;;0.20;0.10;;;;;;;1.80;100.00;99578.28;5053095;28;20454;-51
2022/04/02 04:07:09;;;;;;;0.20;0.10;;;;;;;1.73;100.00;99579.16;5051787;28;20536;-52
2022/04/02 04:09:40;;;;;;;0.20;0.10;;;;;;;1.67;100.00;99576.59;5056453;28;20987;-51
2022/04/02 04:12:10;;;;;;;0.20;0.10;;;;;;;1.54;100.00;99591.47;5057026;28;20458;-52
2022/04/02 04:14:37;;;;;;;0.20;0.10;;;;;;;1.43;100.00;99591.50;5044179;28;20447;-52
2022/04/02 04:17:04;;;;;;;0.20;0.10;;;;;;;1.45;100.00;99592.38;5052867;28;20451;-51
2022/04/02 04:19:31;;;;;;;0.20;0.10;;;;;;;1.48;100.00;99594.09;5056215;28;20474;-51
2022/04/02 04:21:59;;;;;;;0.20;0.10;;;;;;;1.37;100.00;99599.41;5050798;28;20975;-51
2022/04/02 04:24:25;;;;;;;0.20;0.10;;;;;;;1.46;100.00;99599.34;5056000;28;20451;-51
2022/04/02 04:26:52;;;;;;;0.20;0.10;;;;;;;1.39;100.00;99605.50;5055740;28;20544;-52
2022/04/02 04:29:19;;;;;;;0.20;0.10;;;;;;;1.57;100.00;99596.69;5055804;28;20524;-51
2022/04/02 04:31:45;;;;;;;0.20;0.10;;;;;;;1.43;100.00;99601.97;5055701;28;20450;-51
2022/04/02 04:34:12;;;;;;;0.20;0.10;;;;;;;1.53;100.00;99615.94;5056440;28;20489;-52
2022/04/02 04:36:39;;;;;;;0.20;0.10;;;;;;;1.47;100.00;99611.56;5049466;28;20458;-52
2022/04/02 04:39:06;;;;;;;0.60;0.60;;;;;;;1.52;100.00;99614.19;5047637;28;20532;-51
2022/04/02 04:41:32;;;;;;;0.20;0.10;;;;;;;1.54;100.00;99615.06;5055879;28;20461;-51
2022/04/02 04:43:59;;;;;;;0.20;0.10;;;;;;;1.48;100.00;99622.91;5056251;28;20451;-51
2022/04/02 04:46:26;;;;;;;0.20;0.10;;;;;;;1.57;100.00;99617.66;5055926;28;20446;-52
2022/04/02 04:48:53;;;;;;;0.20;0.10;;;;;;;1.55;100.00;99624.66;5055602;28;20490;-51
2022/04/02 04:51:23;;;;;;;0.20;0.10;;;;;;;1.54;100.00;99632.50;5055730;28;20451;-52
2022/04/02 04:53:51;;;;;;;0.20;0.20;;;;;;;1.46;100.00;99630.78;5055439;28;20974;-51
2022/04/02 04:56:18;;;;;;;0.20;0.10;;;;;;;1.55;100.00;99635.13;5055402;28;20454;-51
2022/04/02 04:58:44;;;;;;;0.20;0.10;;;;;;;1.42;100.00;99634.28;5056226;28;20512;-52
2022/04/02 05:01:14;;;;;;;0.20;0.10;;;;;;;1.44;100.00;99634.28;5056029;28;20528;-53
2022/04/02 05:03:41;;;;;;;0.20;0.10;;;;;;;1.48;100.00;99641.22;5055267;28;20508;-50
2022/04/02 05:06:10;;;;;;;0.20;0.10;;;;;;;1.33;100.00;99642.16;5055300;28;20951;-51
2022/04/02 05:08:36;;;;;;;0.20;0.10;;;;;;;1.45;100.00;99654.34;5054697;28;20567;-51
2022/04/02 05:11:04;;;;;;;0.20;0.10;;;;;;;1.54;100.00;99651.72;5055482;28;20491;-52
2022/04/02 05:13:31;;;;;;;0.20;0.10;;;;;;;1.48;100.00;99660.44;5051764;28;20452;-53
2022/04/02 05:15:57;;;;;;;0.20;0.10;;;;;;;1.47;100.00;99652.59;5055050;28;20483;-51
2022/04/02 05:18:25;;;;;;;0.20;0.10;;;;;;;1.40;100.00;99659.59;5055032;28;20462;-52
2022/04/02 05:20:52;;;;;;;0.20;0.10;;;;;;;1.34;100.00;99654.34;5054722;28;20454;-53
2022/04/02 05:23:18;;;;;;;0.20;0.10;;;;;;;1.31;100.00;99663.97;5045291;28;20451;-52
2022/04/02 05:25:45;;;;;;;0.20;0.10;;;;;;;1.30;100.00;99665.72;5054539;28;20447;-51
2022/04/02 05:28:12;;;;;;;0.20;0.20;;;;;;;1.19;100.00;99664.84;5054756;28;20494;-52
2022/04/02 05:30:40;;;;;;;0.20;0.10;;;;;;;1.03;100.00;99660.50;5054897;28;20477;-52
2022/04/02 05:33:07;;;;;;;0.20;0.10;;;;;;;1.17;100.00;99670.09;5054599;28;20538;-51
2022/04/02 05:35:54;;;;;;;0.20;0.10;;;;;;;1.28;100.00;99674.44;5053025;28;20852;-51
2022/04/02 05:38:20;;;;;;;0.20;0.10;;;;;;;1.17;100.00;99680.56;5054995;28;20466;-51
2022/04/02 05:40:47;;;;;;;0.20;0.10;;;;;;;1.33;100.00;99677.91;5054385;28;20450;-52
2022/04/02 05:43:13;;;;;;;0.20;0.10;;;;;;;1.44;100.00;99684.03;5054318;28;20963;-51
2022/04/02 05:45:40;;;;;;;0.20;0.10;;;;;;;1.43;100.00;99682.28;5054373;28;20951;-52
2022/04/02 05:48:07;;;;;;;0.20;0.10;;;;;;;1.49;100.00;99683.13;5053993;28;20861;-51
2022/04/02 05:50:34;;;;;;;0.20;0.10;;;;;;;1.37;100.00;99682.28;5054734;28;20447;-51
2022/04/02 05:53:03;;;;;;;0.20;0.10;;;;;;;1.41;100.00;99687.53;5054381;28;20857;-51
2022/04/02 05:55:31;;;;;;;0.20;0.10;;;;;;;1.53;100.00;99693.63;5054263;28;20451;-52
2022/04/02 05:57:58;;;;;;;0.20;0.10;;;;;;;1.52;100.00;99704.97;5027582;28;20499;-51
2022/04/02 06:00:25;;;;;;;0.20;0.10;;;;;;;1.47;100.00;99702.34;5054037;28;20450;-51
2022/04/02 06:03:00;;;;;;;0.20;0.10;;;;;;;1.59;100.00;99704.06;5054387;28;20454;-52
2022/04/02 06:05:28;;;;;;;0.20;0.10;;;;;;;1.53;100.00;99715.44;5045567;28;21004;-52
2022/04/02 06:07:55;;;;;;;0.20;0.10;;;;;;;1.62;100.00;99725.00;5053979;28;20490;-51
2022/04/02 06:10:21;;;;;;;0.20;0.10;;;;;;;1.87;100.00;99725.84;5054005;28;20454;-51
2022/04/02 06:12:50;;;;;;;0.20;0.10;;;;;;;1.91;100.00;99728.44;5054043;28;20864;-52
2022/04/02 06:15:18;;;;;;;0.20;0.10;;;;;;;1.73;100.00;99720.63;5037897;28;20486;-52
2022/04/02 06:17:44;;;;;;;0.20;0.10;;;;;;;1.70;100.00;99736.34;5054747;28;20804;-52
2022/04/02 06:20:13;;;;;;;0.20;0.10;;;;;;;1.68;100.00;99732.88;5054526;28;20863;-52
2022/04/02 06:22:40;;;;;;;0.20;0.10;;;;;;;1.69;100.00;99739.84;5048716;28;20451;-51
2022/04/02 06:25:07;;;;;;;0.20;0.10;;;;;;;1.31;100.00;99750.34;5053967;28;20474;-51
2022/04/02 06:27:45;;;;;;;0.20;0.10;;;;;;;1.44;100.00;99762.56;5053836;28;20538;-52
2022/04/02 06:30:13;;;;;;;0.20;0.10;;;;;;;1.41;100.00;99767.81;5054034;28;20439;-52
2022/04/02 06:32:40;;;;;;;0.20;0.10;;;;;;;1.48;100.00;99756.44;5054159;28;20450;-52
2022/04/02 06:35:07;;;;;;;0.20;0.10;;;;;;;1.25;100.00;99759.09;5052018;28;20450;-52
2022/04/02 06:37:35;;;;;;;0.20;0.10;;;;;;;1.30;100.00;99767.81;5054205;28;20477;-51
2022/04/02 06:40:04;;;;;;;0.20;0.10;;;;;;;1.27;100.00;99759.09;5053717;28;20451;-52
2022/04/02 06:42:31;;;;;;;0.20;0.10;;;;;;;1.36;100.00;99765.19;5054111;28;20936;-52
2022/04/02 06:44:58;;;;;;;0.20;0.10;;;;;;;1.46;100.00;99766.06;5053758;28;20455;-52
2022/04/02 06:47:29;;;;;;;0.20;0.10;;;;;;;1.42;100.00;99780.03;5040306;28;20510;-52
2022/04/02 06:49:56;;;;;;;0.20;0.10;;;;;;;1.44;100.00;99778.28;5054005;28;20548;-52
2022/04/02 06:52:24;;;;;;;0.20;0.10;;;;;;;1.38;100.00;99776.56;5053344;28;20447;-52
2022/04/02 06:54:50;;;;;;;0.20;0.10;;;;;;;1.48;100.00;99782.63;5053730;28;20458;-53
2022/04/02 06:57:19;;;;;;;0.20;0.10;;;;;;;1.47;100.00;99794.84;5053120;28;20443;-51
2022/04/02 06:59:46;;;;;;;0.20;0.10;;;;;;;1.46;100.00;99794.88;5052900;28;20470;-52
2022/04/02 07:02:13;;;;;;;0.20;0.10;;;;;;;1.66;100.00;99793.13;5052937;28;21052;-52
2022/04/02 07:04:40;;;;;;;0.30;0.20;;;;;;;1.57;100.00;99815.81;5049701;28;20487;-52
2022/04/02 07:07:07;;;;;;;0.20;0.10;;;;;;;1.55;100.00;99807.09;5047739;28;20451;-52
2022/04/02 07:09:33;;;;;;;0.20;0.10;;;;;;;1.54;100.00;99815.81;5052967;28;20525;-53
2022/04/02 07:12:01;;;;;;;0.20;0.10;;;;;;;1.53;100.00;99808.84;5052867;28;20481;-51
2022/04/02 07:14:28;;;;;;;0.20;0.10;;;;;;;1.44;100.00;99815.81;5043947;28;20447;-52
2022/04/02 07:16:55;;;;;;;0.20;0.10;;;;;;;1.35;100.00;99825.41;5050031;28;20511;-51
2022/04/02 07:19:25;;;;;;;0.20;0.10;;;;;;;1.56;100.00;99824.56;5052967;28;20473;-51
2022/04/02 07:21:52;;;;;;;0.30;0.30;;;;;;;1.25;100.00;99828.91;5048713;28;20528;-52
2022/04/02 07:24:21;;;;;;;0.20;0.10;;;;;;;1.28;100.00;99831.50;5053403;28;20454;-52
2022/04/02 07:26:48;;;;;;;0.20;0.10;;;;;;;1.39;100.00;99835.91;5052967;28;20451;-52
2022/04/02 07:29:15;;;;;;;0.20;0.10;;;;;;;1.44;100.00;99830.66;5052772;28;20521;-52
2022/04/02 07:31:45;;;;;;;0.20;0.10;;;;;;;1.62;100.00;99841.13;5052349;28;20455;-52
2022/04/02 07:34:19;;;;;;;0.20;0.10;;;;;;;1.72;100.00;99847.25;5051643;28;20936;-52
2022/04/02 07:37:12;;;;;;;0.20;0.10;;;;;;;1.55;100.00;99860.34;5051281;28;20470;-52
2022/04/02 07:39:45;;;;;;;0.20;0.10;;;;;;;1.54;100.00;99857.72;5052583;28;20848;-53
2022/04/02 07:42:22;;;;;;;0.87;0.87;;;;;;;1.54;100.00;99858.59;5052600;28;20454;-53
2022/04/02 07:45:10;;;;;;;0.20;0.10;;;;;;;1.69;100.00;99865.59;5052383;28;20475;-53
2022/04/02 07:47:39;;;;;;;0.20;0.10;;;;;;;1.72;100.00;99868.19;5052511;28;20470;-53
2022/04/02 07:50:09;;;;;;;0.20;0.10;;;;;;;1.76;100.00;99865.56;5052427;28;20955;-53
2022/04/02 07:52:36;;;;;;;0.30;0.20;;;;;;;1.82;100.00;99866.47;5052641;28;20576;-53
2022/04/02 07:55:06;;;;;;;0.20;0.20;;;;;;;1.80;100.00;99879.56;5052577;28;20991;-53
2022/04/02 07:57:39;;;;;;;0.20;0.10;;;;;;;1.72;100.00;99876.06;5052752;28;20517;-52
2022/04/02 08:00:10;;;;;;;0.20;0.10;;;;;;;1.81;100.00;99881.31;5052738;28;20447;-51
2022/04/02 08:02:38;;;;;;;0.20;0.10;;;;;;;1.92;100.00;99881.28;5052745;28;20443;-52
2022/04/02 08:05:08;;;;;;;0.20;0.10;;;;;;;1.99;100.00;99889.16;5052577;28;20504;-52
2022/04/02 08:07:40;;;;;;;0.20;0.10;;;;;;;1.95;100.00;99891.78;5052149;28;20482;-51
2022/04/02 08:10:10;;;;;;;0.20;0.10;;;;;;;1.81;100.00;99894.41;5052564;28;20450;-52
2022/04/02 08:12:39;;;;;;;0.20;0.10;;;;;;;2.24;100.00;99889.16;5026870;28;20447;-52
2022/04/02 08:15:13;;;;;;;0.20;0.10;;;;;;;2.38;100.00;99892.63;5019235;28;20444;-52
2022/04/02 08:17:41;;;;;;;0.20;0.10;;;;;;;2.44;100.00;99896.97;5053215;28;20493;-52
2022/04/02 08:20:09;;;;;;;0.20;0.10;;;;;;;2.38;100.00;99897.84;5053730;28;20451;-52
2022/04/02 08:22:36;;;;;;;0.20;0.10;;;;;;;2.32;100.00;99898.72;5041367;28;20452;-52
2022/04/02 08:25:04;;;;;;;0.20;0.10;;;;;;;2.13;100.00;99906.63;5053145;28;20530;-52
2022/04/02 08:27:35;;;;;;;0.20;0.10;;;;;;;2.25;100.00;99909.25;5058936;28;20472;-53
2022/04/02 08:30:04;;;;;;;0.20;0.10;;;;;;;2.30;100.00;99905.72;5052315;28;20505;-51
2022/04/02 08:32:49;;;;;;;0.20;0.10;;;;;;;2.06;100.00;99906.66;5052421;28;20504;-52
2022/04/02 08:35:24;;;;;;;0.20;0.10;;;;;;;2.06;100.00;99905.78;5028300;28;20864;-53
2022/04/02 08:38:03;;;;;;;0.20;0.10;;;;;;;2.18;100.00;99918.84;5051696;28;20495;-52
2022/04/02 08:41:03;;;;;;;0.20;0.10;;;;;;;2.34;100.00;99910.13;5052396;28;20447;-52
2022/04/02 08:43:59;;;;;;;0.20;0.10;;;;;;;2.36;100.00;99920.59;5010938;28;20501;-52
2022/04/02 08:46:35;;;;;;;0.20;0.10;;;;;;;2.30;100.00;99925.81;5051792;28;20955;-53
2022/04/02 08:49:15;;;;;;;0.20;0.10;;;;;;;2.27;100.00;99926.72;5055384;28;20494;-53
2022/04/02 08:51:46;;;;;;;0.20;0.10;;;;;;;2.23;100.00;99924.09;5056015;28;20512;-52
2022/04/02 08:54:19;;;;;;;0.20;0.10;;;;;;;1.99;100.00;99932.84;5055841;28;20442;-52
2022/04/02 08:56:48;;;;;;;0.20;0.20;;;;;;;2.23;100.00;99934.59;5055503;28;20997;-53
2022/04/02 08:59:46;;;;;;;0.30;0.20;;;;;;;2.20;100.00;99932.84;5037794;28;20459;-55
2022/04/02 09:02:31;;;;;;;0.20;0.10;;;;;;;2.25;100.00;99940.69;5053431;28;20458;-53
2022/04/02 09:05:06;;;;;;;0.20;0.10;;;;;;;2.24;100.00;99942.44;5049957;28;20451;-55
2022/04/02 09:07:45;;;;;;;0.20;0.10;;;;;;;2.35;100.00;99938.06;5054732;28;20446;-53
2022/04/02 09:10:39;;;;;;;0.20;0.10;;;;;;;2.28;100.00;99945.94;5054693;28;20447;-53
2022/04/02 09:13:25;;;;;;;0.20;0.10;;;;;;;2.17;100.00;99961.66;5055844;28;20447;-54
2022/04/02 09:16:02;;;;;;;0.20;0.10;;;;;;;2.43;100.00;99953.78;5031572;28;20490;-53
2022/04/02 09:18:39;;;;;;;0.20;0.10;;;;;;;2.23;100.00;99960.81;5055493;28;20474;-53
2022/04/02 09:21:29;;;;;;;0.20;0.10;;;;;;;2.40;100.00;99966.91;5055492;28;20442;-52
2022/04/02 09:24:04;;;;;;;0.20;0.10;;;;;;;2.16;100.00;99964.28;5029719;28;20449;-54
2022/04/02 09:26:53;;;;;;;0.20;0.20;;;;;;;2.14;100.00;99973.91;5055594;28;20821;-53
2022/04/02 09:29:46;;;;;;;0.20;0.10;;;;;;;2.41;100.00;99971.28;5055338;28;20925;-56
2022/04/02 09:32:38;;;;;;;0.20;0.10;;;;;;;2.45;100.00;99975.63;5025786;28;20450;-54
2022/04/02 09:35:13;;;;;;;0.20;0.10;;;;;;;2.23;100.00;99969.56;5053654;28;20446;-53
2022/04/02 09:38:22;;;;;;;0.20;0.10;;;;;;;2.52;100.00;99979.16;5054990;28;20446;-53
2022/04/02 09:40:51;;;;;;;0.20;0.10;;;;;;;2.42;100.00;99977.41;5055266;28;20493;-54
2022/04/02 09:43:24;;;;;;;0.20;0.10;;;;;;;2.53;100.00;99991.38;5028657;28;20527;-53
2022/04/02 09:46:11;;;;;;;0.20;0.10;;;;;;;2.48;100.00;99990.53;5054502;28;20450;-55
2022/04/02 09:48:55;;;;;;;0.20;0.10;;;;;;;2.46;100.00;99998.38;5055563;28;20500;-54
2022/04/02 09:51:31;;;;;;;0.20;0.10;;;;;;;2.54;100.00;100001.00;5062306;28;20473;-54
2022/04/02 09:54:29;;;;;;;0.20;0.10;;;;;;;2.52;98.73;99998.38;5043044;28;20447;-54
2022/04/02 09:57:20;;;;;;;0.20;0.10;;;;;;;2.54;98.71;99987.88;5058205;28;20894;-55
2022/04/02 10:00:02;;;;;;;0.20;0.10;;;;;;;2.75;100.00;99993.13;5058455;28;20463;-53
2022/04/02 10:03:06;;;;;;;0.20;0.10;;;;;;;2.93;98.66;99994.81;5057304;28;20504;-54
2022/04/02 10:05:51;;;;;;;0.20;0.10;;;;;;;2.86;95.74;99990.44;5049813;28;20448;-52
2022/04/02 10:08:39;;;;;;;2.20;0.40;;;;;;;2.80;95.68;100000.97;5056658;28;20540;-52
2022/04/02 10:11:11;;;;;;;0.20;0.10;;;;;;;2.96;95.32;99998.28;5056021;28;20443;-53
2022/04/02 10:13:39;;;;;;;0.20;0.10;;;;;;;2.82;93.99;100001.81;5052605;28;20865;-52
2022/04/02 10:16:06;;;;;;;0.20;0.10;;;;;;;2.95;94.29;100001.81;5044748;28;20473;-53
2022/04/02 10:18:35;;;;;;;0.20;0.10;;;;;;;3.14;95.20;99986.84;5055058;28;20478;-54
2022/04/02 10:21:05;;;;;;;0.20;0.10;;;;;;;3.25;92.55;99995.56;5053862;28;20451;-53
2022/04/02 10:23:36;;;;;;;0.20;0.10;;;;;;;3.26;92.33;100002.56;5048928;28;20455;-54
2022/04/02 10:26:07;;;;;;;0.20;0.10;;;;;;;3.14;91.96;100001.75;5046144;28;20787;-54
2022/04/02 10:28:58;;;;;;;0.20;0.10;;;;;;;3.34;93.17;100006.94;5054553;28;20502;-53
2022/04/02 10:31:35;;;;;;;0.37;0.37;;;;;;;3.43;93.03;100005.16;5050156;28;20948;-54
2022/04/02 10:34:09;;;;;;;0.20;0.10;;;;;;;3.28;91.81;100005.19;5037680;28;20932;-54
2022/04/02 10:36:51;;;;;;;0.90;0.90;;;;;;;3.37;93.61;99999.91;5051823;28;20450;-53
2022/04/02 10:39:23;;;;;;;0.20;0.10;;;;;;;3.25;94.23;100003.44;5024987;28;20473;-52
2022/04/02 10:41:54;;;;;;;0.20;0.10;;;;;;;3.40;94.31;100006.91;5054192;28;20561;-52
2022/04/02 10:44:21;;;;;;;0.20;0.10;;;;;;;3.45;93.45;100013.91;5053601;28;20447;-52
2022/04/02 10:46:49;;;;;;;0.20;0.10;;;;;;;3.34;94.51;100005.19;5053805;28;20506;-53
2022/04/02 10:49:32;;;;;;;0.20;0.10;;;;;;;3.38;92.65;100006.91;5053438;28;21047;-53
2022/04/02 10:52:02;;;;;;;0.20;0.10;;;;;;;3.51;92.91;100005.09;5053356;28;20481;-53
2022/04/02 10:54:29;;;;;;;0.20;0.10;;;;;;;3.24;92.50;100013.97;5053597;28;20443;-53
2022/04/02 10:56:57;;;;;;;0.20;0.10;;;;;;;3.33;92.86;100010.44;5053754;28;20455;-53
2022/04/02 10:59:30;;;;;;;0.20;0.17;;;;;;;3.41;92.20;99998.13;5035369;28;20463;-53
2022/04/02 11:02:01;;;;;;;0.20;0.10;;;;;;;3.36;89.80;100011.28;5052936;28;20458;-54
2022/04/02 11:04:53;;;;;;;0.20;0.10;;;;;;;3.40;90.54;100002.50;5025918;28;20477;-52
2022/04/02 11:07:35;;;;;;;0.20;0.10;;;;;;;3.70;90.00;100003.25;5049943;28;20473;-53
2022/04/02 11:10:02;;;;;;;0.20;0.10;;;;;;;3.65;87.59;100000.66;5053297;28;20491;-52
2022/04/02 11:12:37;;;;;;;0.20;0.10;;;;;;;3.83;86.75;100005.78;5053080;28;20447;-51
2022/04/02 11:15:12;;;;;;;0.20;0.10;;;;;;;3.78;87.73;100020.72;5050582;28;20485;-54
2022/04/02 11:17:42;;;;;;;0.20;0.10;;;;;;;3.89;88.21;100018.03;5053041;28;20446;-53
2022/04/02 11:20:18;;;;;;;0.20;0.10;;;;;;;3.63;90.04;100012.94;5052991;28;20866;-53
2022/04/02 11:22:51;;;;;;;0.20;0.20;;;;;;;3.76;89.82;100019.00;5048295;28;20508;-54
2022/04/02 11:25:24;;;;;;;0.20;0.10;;;;;;;4.01;90.72;100022.34;5053554;28;20447;-49
2022/04/02 11:27:54;;;;;;;0.30;0.20;;;;;;;4.12;90.07;100034.56;5052969;28;20447;-48
2022/04/02 11:30:26;;;;;;;0.30;0.20;;;;;;;3.91;89.27;100029.41;5052749;28;20995;-49
2022/04/02 11:33:06;;;;;;;0.20;0.10;;;;;;;3.80;90.41;100029.47;5052585;28;20439;-48
2022/04/02 11:35:55;;;;;;;0.20;0.10;;;;;;;3.85;90.82;100032.97;5051066;28;20485;-49
2022/04/02 11:38:40;;;;;;;0.40;0.40;;;;;;;4.05;91.76;100043.34;5053735;28;20490;-49
2022/04/02 11:41:20;;;;;;;0.20;0.10;;;;;;;3.72;88.37;100040.94;5055743;28;20497;-48
2022/04/02 11:43:51;;;;;;;0.20;0.10;;;;;;;3.91;89.35;100034.69;5052629;28;20454;-48
2022/04/02 11:46:20;;;;;;;0.20;0.10;;;;;;;4.16;88.29;100038.03;5052587;28;20452;-48
2022/04/02 11:49:01;;;;;;;0.20;0.10;;;;;;;4.16;87.33;100036.28;5052795;28;20498;-48
2022/04/02 11:51:30;;;;;;;0.20;0.13;;;;;;;4.29;88.66;100041.47;5053031;28;20446;-48
2022/04/02 11:54:02;;;;;;;0.30;0.20;;;;;;;4.19;88.62;100039.75;5052346;28;20454;-48